UNR Ag. Experiment Farm, Sparks, Nevada Weather observations

Data are for 10 minute period ending at time listed.
 Day   Time   Solar   Ave.   Ave.  Ave.  Vector  Max.   Baro.   Total    
  of    of     Rad.   Air    Rel.  Wind   Wind   Wind  Press.  Precip.   
Year   Day            Temp.  Hum.  Speed  Dir.   Gust                    
2026   (PST)  Kw/m2    F      %     mph   deg.    mph    mb.     in.     
-------------------------------------------------------------------------
 121   11:20   1.09   69.3    18    9.3   104    13.6   867.8    0.00 
 121   11:30   1.10   69.2    17    6.2   111    12.8   867.7    0.00 
 121   11:40   1.09   70.1    18    5.1   109    11.3   867.6    0.00 
 121   11:50   1.10   69.9    17    5.9    84    12.6   867.5    0.00 
 121   12:00   1.10   69.9    16    4.1    89     9.7   867.4    0.00 
 121   12:10   1.09   70.7    16    3.7    84    11.5   867.3    0.00 
 121   12:20   1.10   70.2    17    8.3   114    15.7   867.3    0.00 
 121   12:30   1.06   70.5    16    5.6    82    11.5   867.2    0.00 
 121   12:40   1.08   70.8    15    5.7    64    11.8   867.1    0.00 
 121   12:50   1.07   70.7    16    3.6   345     8.9   866.9    0.00 
 121   13:00   1.08   71.2    16    5.0    33     9.0   866.8    0.00 
 121   13:10   1.07   71.6    16    5.2    52    13.6   866.8    0.00 
 121   13:20   1.02   71.9    16    7.4    55    14.1   866.7    0.00 
 121   13:30   0.99   72.1    14    6.2    70    11.7   866.6    0.00 
 121   13:40   0.97   72.4    14    3.2   117     9.7   866.5    0.00 
 121   13:50   0.98   72.6    15    3.9   144     7.4   866.4    0.00 
 121   14:00   0.96   73.1    14    2.8   202     8.7   866.3    0.00 
 121   14:10   0.91   72.7    15    7.3   113    11.6   866.2    0.00 
 121   14:20   0.92   73.0    14    5.2   112    12.6   866.1    0.00 
 121   14:30   0.88   73.3    15    5.9     2    10.9   865.8    0.00 
 121   14:40   0.86   72.8    14    7.9    40    12.9   865.6    0.00 
 121   14:50   0.79   73.8    13    7.0    65    13.2   865.4    0.00 
 121   15:00   0.78   73.4    14    9.9    52    13.1   865.3    0.00 
 121   15:10   0.80   73.2    13    6.9    35    11.0   865.2    0.00 
 121   15:20   0.76   73.1    13    4.7     9     9.3   865.0    0.00 
 121   15:30   0.70   73.2    13    6.3    27    12.4   864.9    0.00 
 121   15:40   0.67   73.2    11    7.2    67    12.9   864.8    0.00 
 121   15:50   0.62   73.5    12    8.0    55    16.1   864.7    0.00 
 121   16:00   0.60   73.5    12    6.2    50    12.6   864.7    0.00 
 121   16:10   0.55   73.3    14    5.1   351     9.2   864.6    0.00 
 121   16:20   0.44   72.8    12    3.5   339     9.0   864.5    0.00 
 121   16:30   0.47   73.0    13    3.9    20     6.9   864.5    0.00 
 121   16:40   0.45   73.2    12    7.3    66    13.4   864.4    0.00 
 121   16:50   0.40   72.8    12    6.0    29    11.4   864.4    0.00 
 121   17:00   0.31   72.6    14    3.9    31     9.1   864.3    0.00 
 121   17:10   0.16   71.5    12    4.7    56     9.6   864.3    0.00 
 121   17:20   0.12   69.8    13    6.9    73    10.7   864.3    0.00 
 121   17:30   0.12   68.4    15    6.3    69     8.4   864.2    0.00 
 121   17:40   0.12   68.4    14    6.9    72    10.6   864.2    0.00 
 121   17:50   0.12   68.5    14    6.3    77     8.6   864.2    0.00 
 121   18:00   0.10   67.8    15    6.4    75    11.6   864.1    0.00 
 121   18:10   0.07   68.1    13    8.7    71    12.2   864.1    0.00 
 121   18:20   0.06   67.7    12    9.1    76    12.6   864.2    0.00 
 121   18:30   0.04   67.6    12    8.9    76    12.1   864.2    0.00 
 121   18:40   0.02   67.2    12    8.8    77    13.3   864.1    0.00 
 121   18:50   0.01   67.3    12    9.1    82    12.1   864.2    0.00 
 121   19:00   0.00   67.0    12    8.0    85    11.3   864.1    0.00 
 121   19:10   0.00   66.5    13    7.3    89    14.1   864.1    0.00 
 121   19:20   0.00   65.8    14    7.5   103    11.5   864.2    0.00 
 121   19:30   0.00   65.0    14    7.1    97    11.4   864.3    0.00 
 121   19:40   0.00   65.4    14    7.6   100    10.7   864.4    0.00 
 121   19:50   0.00   65.2    14    8.2   102    13.2   864.5    0.00 
 121   20:00   0.00   65.2    14    8.6   101    12.1   864.6    0.00 
 121   20:10   0.00   64.7    14    7.4   103    11.8   864.8    0.00 
 121   20:20   0.00   64.2    16    5.5   112     8.8   864.9    0.00 
 121   20:30   0.00   63.2    16    3.0   230     6.0   865.1    0.00 
 121   20:40   0.00   61.6    16    4.3   218     5.7   865.1    0.00 
 121   20:50   0.00   62.0    17    3.1   209     6.0   865.3    0.00 
 121   21:00   0.00   63.7    13    1.1   139     1.6   865.4    0.00 
 121   21:10   0.00   64.1    14    0.4   255     1.5   865.4    0.00 
 121   21:20   0.00   62.3    17    2.0    84     4.0   865.4    0.00 
 121   21:30   0.00   60.6    18    1.9   252     2.9   865.4    0.00 
 121   21:40   0.00   59.5    21    1.6   310     3.0   865.4    0.00 
 121   21:50   0.00   56.6    31    0.7   174     1.7   865.4    0.00 
 121   22:00   0.00   57.2    26    0.8   260     1.8   865.4    0.00 
 121   22:10   0.00   55.7    36    1.8   219     3.2   865.5    0.00 
 121   22:20   0.00   54.1    28    1.1   136     3.0   865.4    0.00 
 121   22:30   0.00   53.5    43    1.7   199     3.0   865.4    0.00 
 121   22:40   0.00   52.8    41    3.2   137     3.8   865.3    0.00 
 121   22:50   0.00   52.4    50    1.1   157     2.5   865.4    0.00 
 121   23:00   0.00   50.7    45    2.8   192     4.0   865.4    0.00 
 121   23:10   0.00   50.3    48    2.4   176     3.7   865.5    0.00 
 121   23:20   0.00   52.5    38    2.6   199     3.5   865.5    0.00 
 121   23:30   0.00   52.4    48    2.6   155     4.4   865.5    0.00 
 121   23:40   0.00   51.4    50    2.7   153     4.0   865.5    0.00 
 121   23:50   0.00   49.9    48    2.0   242     4.1   865.5    0.00 
 122    0:00   0.00   50.4    39    0.7   263     2.0   865.4    0.00 
 122    0:10   0.00   51.9    38    1.2   167     4.4   865.3    0.00 
 122    0:20   0.00   49.5    53    2.8   108     4.4   865.3    0.00 
 122    0:30   0.00   48.2    52    1.0   282     1.7   865.2    0.00 
 122    0:40   0.00   48.2    50    1.0   286     1.4   865.1    0.00 
 122    0:50   0.00   49.4    46    0.6   283     1.2   865.1    0.00 
 122    1:00   0.00   49.4    44    0.0     0     0.0   865.0    0.00 
 122    1:10   0.00   49.2    48    0.1   354     0.8   864.9    0.00 
 122    1:20   0.00   47.3    70    0.6   124     1.8   864.8    0.00 
 122    1:30   0.00   47.0    62    1.7   122     3.6   864.7    0.00 
 122    1:40   0.00   46.0    65    1.6   160     2.5   864.7    0.00 
 122    1:50   0.00   44.4    66    1.3   114     3.2   864.6    0.00 
 122    2:00   0.00   44.5    69    1.2   123     3.0   864.5    0.00 
 122    2:10   0.00   43.7    72    0.9   287     2.8   864.5    0.00 
 122    2:20   0.00   43.8    63    1.8   244     3.1   864.6    0.00 
 122    2:30   0.00   45.5    54    0.6   275     1.9   864.6    0.00 
 122    2:40   0.00   46.3    54    0.7   244     1.5   864.7    0.00 
 122    2:50   0.00   44.6    64    0.7   120     2.2   864.7    0.00 
 122    3:00   0.00   44.9    60    0.9   230     1.8   864.7    0.00 
 122    3:10   0.00   46.8    53    0.7   200     1.7   864.7    0.00 
 122    3:20   0.00   45.3    64    1.5   107     2.9   864.8    0.00 
 122    3:30   0.00   44.1    62    2.1   160     3.3   864.8    0.00 
 122    3:40   0.00   43.2    64    1.5   254     2.4   864.8    0.00 
 122    3:50   0.00   43.4    67    1.2   136     4.3   864.8    0.00 
 122    4:00   0.00   41.2    68    1.7    50     2.0   864.7    0.00 
 122    4:10   0.00   41.9    68    1.3    73     2.7   864.7    0.00 
 122    4:20   0.00   40.8    72    1.7   245     2.4   864.7    0.00 
 122    4:30   0.00   42.1    68    0.9   245     1.9   864.7    0.00 
 122    4:40   0.00   41.5    77    1.2   172     2.1   864.8    0.00 
 122    4:50   0.00   42.0    73    0.5   140     2.1   864.8    0.00 
 122    5:00   0.00   39.6    75    0.7    70     2.1   864.8    0.00 
 122    5:10   0.00   40.5    70    1.2   335     3.5   864.8    0.00 
 122    5:20   0.01   41.8    71    0.5   180     1.6   864.9    0.00 
 122    5:30   0.03   41.1    82    0.9    77     2.1   864.9    0.00 
 122    5:40   0.05   40.3    82    0.7    12     1.7   865.0    0.00 
 122    5:50   0.06   41.6    69    1.1   283     2.4   865.1    0.00 
 122    6:00   0.07   43.1    69    0.4   214     1.2   865.1    0.00 
 122    6:10   0.09   43.6    80    1.1   116     2.2   865.1    0.00 
 122    6:20   0.12   44.5    77    1.1   213     2.1   865.2    0.00 
 122    6:30   0.16   46.1    69    1.0   236     2.0   865.3    0.00 
 122    6:40   0.16   48.0    66    0.1   130     0.9   865.4    0.00 
 122    6:50   0.17   49.6    62    0.3   130     1.3   865.5    0.00 
 122    7:00   0.19   51.4    53    0.3    87     1.4   865.6    0.00 
 122    7:10   0.24   52.4    48    0.6   142     1.6   865.7    0.00 
 122    7:20   0.31   53.3    48    1.4   115     2.5   865.7    0.00 
 122    7:30   0.40   55.2    44    0.9    81     2.1   865.7    0.00 
 122    7:40   0.43   57.3    40    0.3   251     1.5   865.7    0.00 
 122    7:50   0.44   57.6    40    1.1   322     2.7   865.7    0.00 
 122    8:00   0.64   58.8    37    1.3   313     3.2   865.7    0.00 
 122    8:10   0.59   59.9    36    1.4   249     3.7   865.6    0.00 
 122    8:20   0.37   60.2    38    1.5   337     3.0   865.6    0.00 
 122    8:30   0.48   60.0    36    1.0   310     2.8   865.6    0.00 
 122    8:40   0.49   61.9    34    0.6    14     3.6   865.5    0.00 
 122    8:50   0.52   63.5    31    0.5    54     2.0   865.5    0.00 
 122    9:00   0.48   63.9    30    0.8   117     1.8   865.5    0.00 
 122    9:10   0.57   64.1    33    1.1    12     2.2   865.4    0.00 
 122    9:20   0.53   64.7    33    1.4   286     5.1   865.4    0.00 
 122    9:30   0.43   63.9    30    1.8   276     6.2   865.4    0.00 
 122    9:40   0.49   65.5    29    1.2   123     3.3   865.4    0.00 
 122    9:50   0.46   65.9    30    2.4   116     4.9   865.4    0.00 
 122   10:00   0.49   66.5    30    3.5   142     6.7   865.3    0.00 
 122   10:10   0.50   67.2    30    3.8   149     6.3   865.3    0.00 
 122   10:20   0.55   67.9    29    3.3   164     6.7   865.1    0.00 
 122   10:30   0.74   68.9    28    4.5   164     8.2   865.1    0.00 
 122   10:40   0.81   69.5    27    5.0   178     8.6   865.0    0.00 
 122   10:50   0.82   70.5    25    3.3   178     8.2   864.9    0.00 
 122   11:00   0.81   71.5    24    2.9   156     5.4   864.8    0.00 
 122   11:10   0.62   71.0    23    4.7   170    11.5   864.8    0.00 

Return to Sparks, Nevada, UNR Ag Experiment Farm graphs page.


Western Regional Climate Center,wrcc@dri.edu